Robertsonville, Canada
Current Conditions -  °F | °C
As of 1:00 PM on Monday 22 Dec 2014 (Local Time) from CYQB Reporting Station
Light Snow Light Snow  
Wind Chill: 21°   Ceiling: 2600
Heat Index: 21°   Visibility: 8mi
Dew Point: 14°   Wind: 3mph
Humidity: 74%   Direction: 20°NNE
Pressure: 30.4"   Gusts: NA
Location:  46.13°N, 71.22°W
Report Text: CYQB 221800Z 02003KT 330V040 8SM -SN OVC026 M06/M10 A3040 RMK SC8 SLP298
Loading
Personal Weather Stations






























Interactive Weather Map New forecast layout! Learn more

10-Day Weather Forecast

Advertisements
Track Severe Weather on mobile